Time;durP1;ratioP1;P1;durP2;ratioP2;P2;SDS_P1;SDS_P2;PMS_P1;PMS_P2;Temp;Humidity;BMP_temperature;BMP_pressure;BME280_temperature;BME280_humidity;BME280_pressure;Samples;Min_cycle;Max_cycle;Signal;HPM_P1;HPM_P2
2021/04/12 00:00:48;;;;;;;;;;;;;;;;;;5050491;28;19958;-67
2021/04/12 00:03:15;;;;;;;;;;;;;;;;;;5047123;28;19928;-66
2021/04/12 00:05:41;;;;;;;;;;;;;;;;;;5047894;28;19932;-67
2021/04/12 00:08:07;;;;;;;;;;;;;;;;;;5036603;28;20334;-67
2021/04/12 00:10:34;;;;;;;;;;;;;;;;;;5050213;28;19937;-67
2021/04/12 00:13:00;;;;;;;;;;;;;;;;;;5045048;28;19932;-67
2021/04/12 00:15:27;;;;;;;;;;;;;;;;;;5045708;28;20020;-67
2021/04/12 00:17:53;;;;;;;;;;;;;;;;;;5044083;28;20016;-67
2021/04/12 00:20:20;;;;;;;;;;;;;;;;;;5049076;28;19931;-67
2021/04/12 00:22:46;;;;;;;;;;;;;;;;;;5049307;28;19936;-67
2021/04/12 00:25:13;;;;;;;;;;;;;;;;;;5042245;28;19931;-66
2021/04/12 00:27:39;;;;;;;;;;;;;;;;;;5048305;28;19924;-66
2021/04/12 00:30:06;;;;;;;;;;;;;;;;;;5042503;28;19932;-67
2021/04/12 00:32:32;;;;;;;;;;;;;;;;;;5049158;28;20312;-67
2021/04/12 00:34:58;;;;;;;;;;;;;;;;;;5045067;28;20340;-67
2021/04/12 00:37:25;;;;;;;;;;;;;;;;;;5042492;28;20389;-67
2021/04/12 00:39:51;;;;;;;;;;;;;;;;;;5048684;28;19932;-67
2021/04/12 00:42:18;;;;;;;;;;;;;;;;;;5048150;28;19931;-67
2021/04/12 00:44:44;;;;;;;;;;;;;;;;;;5036767;28;19935;-67
2021/04/12 00:47:11;;;;;;;;;;;;;;;;;;5047124;28;19983;-67
2021/04/12 00:49:37;;;;;;;;;;;;;;;;;;5044053;28;20341;-67
2021/04/12 00:52:04;;;;;;;;;;;;;;;;;;5048683;28;20130;-67
2021/04/12 00:54:30;;;;;;;;;;;;;;;;;;5050183;28;20361;-67
2021/04/12 00:56:57;;;;;;;;;;;;;;;;;;5049044;28;20027;-67
2021/04/12 00:59:23;;;;;;;;;;;;;;;;;;5051861;28;19929;-67
2021/04/12 01:01:50;;;;;;;;;;;;;;;;;;5050967;28;19977;-67
2021/04/12 01:04:16;;;;;;;;;;;;;;;;;;5052188;28;19986;-66
2021/04/12 01:06:43;;;;;;;;;;;;;;;;;;5050322;28;19925;-67
2021/04/12 01:09:09;;;;;;;;;;;;;;;;;;5052597;28;19925;-67
2021/04/12 01:11:36;;;;;;;;;;;;;;;;;;5052947;28;19929;-68
2021/04/12 01:14:02;;;;;;;;;;;;;;;;;;5053312;28;20023;-67
2021/04/12 01:16:29;;;;;;;;;;;;;;;;;;5050367;28;19959;-67
2021/04/12 01:18:55;;;;;;;;;;;;;;;;;;5051094;28;20020;-66
2021/04/12 01:21:22;;;;;;;;;;;;;;;;;;5051582;28;20292;-67
2021/04/12 01:23:48;;;;;;;;;;;;;;;;;;5049091;28;19931;-67
2021/04/12 01:26:15;;;;;;;;;;;;;;;;;;5054065;28;19987;-65
2021/04/12 01:28:41;;;;;;;;;;;;;;;;;;5041157;28;19925;-67
2021/04/12 01:31:08;;;;;;;;;;;;;;;;;;5046210;28;19925;-66
2021/04/12 01:33:34;;;;;;;;;;;;;;;;;;5050236;28;19932;-68
2021/04/12 01:36:01;;;;;;;;;;;;;;;;;;5051384;28;19929;-65
2021/04/12 01:38:27;;;;;;;;;;;;;;;;;;5048481;28;19929;-67
2021/04/12 01:40:54;;;;;;;;;;;;;;;;;;5041119;28;19924;-66
2021/04/12 01:43:20;;;;;;;;;;;;;;;;;;5045958;28;19997;-67
2021/04/12 01:45:47;;;;;;;;;;;;;;;;;;5042873;28;19932;-67
2021/04/12 01:48:13;;;;;;;;;;;;;;;;;;5051983;28;19925;-66
2021/04/12 01:50:40;;;;;;;;;;;;;;;;;;5049671;28;19925;-66
2021/04/12 01:53:06;;;;;;;;;;;;;;;;;;5050077;28;19925;-67
2021/04/12 01:55:33;;;;;;;;;;;;;;;;;;5047395;28;19935;-67
2021/04/12 01:57:59;;;;;;;;;;;;;;;;;;5045662;28;19931;-67
2021/04/12 02:00:26;;;;;;;;;;;;;;;;;;5043304;28;19925;-67
2021/04/12 02:02:52;;;;;;;;;;;;;;;;;;5051853;28;19929;-67
2021/04/12 02:05:19;;;;;;;;;;;;;;;;;;5045090;28;19932;-66
2021/04/12 02:07:45;;;;;;;;;;;;;;;;;;5052824;28;19931;-67
2021/04/12 02:10:12;;;;;;;;;;;;;;;;;;5046039;28;19925;-67
2021/04/12 02:12:38;;;;;;;;;;;;;;;;;;5050456;28;19924;-67
2021/04/12 02:15:04;;;;;;;;;;;;;;;;;;5052810;28;20296;-67
2021/04/12 02:17:31;;;;;;;;;;;;;;;;;;5046327;28;19931;-66
2021/04/12 02:19:57;;;;;;;;;;;;;;;;;;5051199;28;19924;-67
2021/04/12 02:22:24;;;;;;;;;;;;;;;;;;5051346;28;19929;-66
2021/04/12 02:24:50;;;;;;;;;;;;;;;;;;5047651;28;19924;-67
2021/04/12 02:27:17;;;;;;;;;;;;;;;;;;5046554;28;19925;-67
2021/04/12 02:29:43;;;;;;;;;;;;;;;;;;5045669;28;19960;-66
2021/04/12 02:32:10;;;;;;;;;;;;;;;;;;5051872;28;19925;-67
2021/04/12 02:34:36;;;;;;;;;;;;;;;;;;5043499;28;19925;-67
2021/04/12 02:37:03;;;;;;;;;;;;;;;;;;5049994;28;19964;-67
2021/04/12 02:39:29;;;;;;;;;;;;;;;;;;5055135;28;19932;-67
2021/04/12 02:41:56;;;;;;;;;;;;;;;;;;5048820;28;20395;-66
2021/04/12 02:44:22;;;;;;;;;;;;;;;;;;5047546;28;19926;-68
2021/04/12 02:46:49;;;;;;;;;;;;;;;;;;5047645;28;19928;-66
2021/04/12 02:49:15;;;;;;;;;;;;;;;;;;5051329;28;19925;-66
2021/04/12 02:51:42;;;;;;;;;;;;;;;;;;5048178;28;19931;-68
2021/04/12 02:54:08;;;;;;;;;;;;;;;;;;5044592;28;20341;-67
2021/04/12 02:56:35;;;;;;;;;;;;;;;;;;5044204;28;19929;-66
2021/04/12 02:59:01;;;;;;;;;;;;;;;;;;5045478;28;19994;-66
2021/04/12 03:01:28;;;;;;;;;;;;;;;;;;5048961;28;20319;-67
2021/04/12 03:03:54;;;;;;;;;;;;;;;;;;5047784;28;19928;-67
2021/04/12 03:06:21;;;;;;;;;;;;;;;;;;5046411;28;20303;-66
2021/04/12 03:08:47;;;;;;;;;;;;;;;;;;5049477;28;19933;-67
2021/04/12 03:11:14;;;;;;;;;;;;;;;;;;5052216;28;20327;-67
2021/04/12 03:13:40;;;;;;;;;;;;;;;;;;5044948;28;19968;-67
2021/04/12 03:16:07;;;;;;;;;;;;;;;;;;5048259;28;19924;-66
2021/04/12 03:18:33;;;;;;;;;;;;;;;;;;5050797;28;19933;-67
2021/04/12 03:21:00;;;;;;;;;;;;;;;;;;5050269;28;20023;-67
2021/04/12 03:23:26;;;;;;;;;;;;;;;;;;5048771;28;19925;-67
2021/04/12 03:25:53;;;;;;;;;;;;;;;;;;5047251;28;20367;-66
2021/04/12 03:28:19;;;;;;;;;;;;;;;;;;5050410;28;19932;-66
2021/04/12 03:30:46;;;;;;;;;;;;;;;;;;5050894;28;19972;-66
2021/04/12 03:33:12;;;;;;;;;;;;;;;;;;5051206;28;19931;-66
2021/04/12 03:35:39;;;;;;;;;;;;;;;;;;5048548;28;19924;-67
2021/04/12 03:38:05;;;;;;;;;;;;;;;;;;5045788;28;19950;-67
2021/04/12 03:40:31;;;;;;;;;;;;;;;;;;5041872;28;20305;-67
2021/04/12 03:42:58;;;;;;;;;;;;;;;;;;5047536;28;20308;-67
2021/04/12 03:45:24;;;;;;;;;;;;;;;;;;5051490;28;19987;-66
2021/04/12 03:47:51;;;;;;;;;;;;;;;;;;5048037;28;19931;-66
2021/04/12 03:50:17;;;;;;;;;;;;;;;;;;5047411;28;19924;-67
2021/04/12 03:52:44;;;;;;;;;;;;;;;;;;5050326;28;19929;-66
2021/04/12 03:55:10;;;;;;;;;;;;;;;;;;5045459;28;19931;-67
2021/04/12 03:57:37;;;;;;;;;;;;;;;;;;5044474;28;19925;-66
2021/04/12 04:00:05;;;;;;;;;;;;;;;;;;5045699;28;19931;-66
2021/04/12 04:02:31;;;;;;;;;;;;;;;;;;5046098;28;19970;-67
2021/04/12 04:04:58;;;;;;;;;;;;;;;;;;5043644;28;20309;-66
2021/04/12 04:07:24;;;;;;;;;;;;;;;;;;5047506;28;19929;-66
2021/04/12 04:09:50;;;;;;;;;;;;;;;;;;5048668;28;19932;-66
2021/04/12 04:12:17;;;;;;;;;;;;;;;;;;5046087;28;19953;-67
2021/04/12 04:14:43;;;;;;;;;;;;;;;;;;5077379;22;20066;-65
2021/04/12 04:17:10;;;;;;;;;;;;;;;;;;5070502;28;19925;-65
2021/04/12 04:19:36;;;;;;;;;;;;;;;;;;5073968;28;20030;-64
2021/04/12 04:22:03;;;;;;;;;;;;;;;;;;5067523;28;20024;-66
2021/04/12 04:24:30;;;;;;;;;;;;;;;;;;5066194;28;20257;-66
2021/04/12 04:26:56;;;;;;;;;;;;;;;;;;5063654;28;20019;-65
2021/04/12 04:29:22;;;;;;;;;;;;;;;;;;5068299;28;19960;-65
2021/04/12 04:31:49;;;;;;;;;;;;;;;;;;5080027;28;19971;-65
2021/04/12 04:34:15;;;;;;;;;;;;;;;;;;5071949;28;20316;-67
2021/04/12 04:36:42;;;;;;;;;;;;;;;;;;5073128;28;19930;-66
2021/04/12 04:39:08;;;;;;;;;;;;;;;;;;5071258;28;19924;-65
2021/04/12 04:41:35;;;;;;;;;;;;;;;;;;5072166;28;20408;-65
2021/04/12 04:44:01;;;;;;;;;;;;;;;;;;5076806;28;19929;-64
2021/04/12 04:46:28;;;;;;;;;;;;;;;;;;5083986;28;19978;-65
2021/04/12 04:48:54;;;;;;;;;;;;;;;;;;5078221;28;20058;-65
2021/04/12 04:51:21;;;;;;;;;;;;;;;;;;5077678;28;19936;-65
2021/04/12 04:53:47;;;;;;;;;;;;;;;;;;5081150;28;19963;-65
2021/04/12 04:56:14;;;;;;;;;;;;;;;;;;5078359;28;20234;-65
2021/04/12 04:58:43;;;;;;;;;;;;;;;;;;5068263;28;20451;-66
2021/04/12 05:01:09;;;;;;;;;;;;;;;;;;5074975;28;19925;-66
2021/04/12 05:03:36;;;;;;;;;;;;;;;;;;5077175;28;20015;-65
2021/04/12 05:06:02;;;;;;;;;;;;;;;;;;5076026;28;20400;-65
2021/04/12 05:08:29;;;;;;;;;;;;;;;;;;5077991;28;19983;-65
2021/04/12 05:10:55;;;;;;;;;;;;;;;;;;5075714;28;19961;-64
2021/04/12 05:13:22;;;;;;;;;;;;;;;;;;5075644;28;19932;-66
2021/04/12 05:15:48;;;;;;;;;;;;;;;;;;5086743;28;19925;-65
2021/04/12 05:18:15;;;;;;;;;;;;;;;;;;5076108;28;19975;-66
2021/04/12 05:20:41;;;;;;;;;;;;;;;;;;5071954;28;20036;-65
2021/04/12 05:23:08;;;;;;;;;;;;;;;;;;5078788;28;20025;-65
2021/04/12 05:25:34;;;;;;;;;;;;;;;;;;5077445;28;19928;-64
2021/04/12 05:28:01;;;;;;;;;;;;;;;;;;5083453;28;19928;-64
2021/04/12 05:30:27;;;;;;;;;;;;;;;;;;5070101;28;20022;-64
2021/04/12 05:32:54;;;;;;;;;;;;;;;;;;5073321;28;20004;-65
2021/04/12 05:35:20;;;;;;;;;;;;;;;;;;5067665;28;19931;-66
2021/04/12 05:37:47;;;;;;;;;;;;;;;;;;5067294;28;19924;-68
2021/04/12 05:40:16;;;;;;;;;;;;;;;;;;5075841;28;19960;-65
2021/04/12 05:42:43;;;;;;;;;;;;;;;;;;5083720;28;19975;-66
2021/04/12 05:45:10;;;;;;;;;;;;;;;;;;5069533;28;20363;-66
2021/04/12 05:47:36;;;;;;;;;;;;;;;;;;5060881;28;20350;-65
2021/04/12 05:50:03;;;;;;;;;;;;;;;;;;5073959;28;20042;-66
2021/04/12 05:52:29;;;;;;;;;;;;;;;;;;5077590;28;20011;-65
2021/04/12 05:54:56;;;;;;;;;;;;;;;;;;5063403;28;19986;-66
2021/04/12 05:57:22;;;;;;;;;;;;;;;;;;5066285;28;20403;-68
2021/04/12 05:59:49;;;;;;;;;;;;;;;;;;5065975;28;19924;-65
2021/04/12 06:02:16;;;;;;;;;;;;;;;;;;5080028;28;20276;-65
2021/04/12 06:04:42;;;;;;;;;;;;;;;;;;5075846;28;19928;-65
2021/04/12 06:07:11;;;;;;;;;;;;;;;;;;5065018;28;20359;-67
2021/04/12 06:09:38;;;;;;;;;;;;;;;;;;5070466;28;19967;-65
2021/04/12 06:12:04;;;;;;;;;;;;;;;;;;5070779;28;19929;-65
2021/04/12 06:14:31;;;;;;;;;;;;;;;;;;5072412;28;19931;-66
2021/04/12 06:16:58;;;;;;;;;;;;;;;;;;5069230;28;20408;-65
2021/04/12 06:19:24;;;;;;;;;;;;;;;;;;5072708;28;19935;-64
2021/04/12 06:21:51;;;;;;;;;;;;;;;;;;5071994;28;20086;-64
2021/04/12 06:24:17;;;;;;;;;;;;;;;;;;5072524;28;19937;-67
2021/04/12 06:26:44;;;;;;;;;;;;;;;;;;5080003;28;20432;-66
2021/04/12 06:29:10;;;;;;;;;;;;;;;;;;5072037;28;20295;-66
2021/04/12 06:31:37;;;;;;;;;;;;;;;;;;5070675;28;20019;-64
2021/04/12 06:34:03;;;;;;;;;;;;;;;;;;5063792;28;19928;-65
2021/04/12 06:36:30;;;;;;;;;;;;;;;;;;5065489;28;20031;-67
2021/04/12 06:38:56;;;;;;;;;;;;;;;;;;5059426;28;20166;-66
2021/04/12 06:41:23;;;;;;;;;;;;;;;;;;5080790;28;20253;-66
2021/04/12 06:43:49;;;;;;;;;;;;;;;;;;5064649;28;19951;-64
2021/04/12 06:46:16;;;;;;;;;;;;;;;;;;5083029;28;19929;-65
2021/04/12 06:48:42;;;;;;;;;;;;;;;;;;5080772;28;19928;-62
2021/04/12 06:51:09;;;;;;;;;;;;;;;;;;5065822;28;19932;-63
2021/04/12 06:53:36;;;;;;;;;;;;;;;;;;5071650;28;19933;-65
2021/04/12 06:56:02;;;;;;;;;;;;;;;;;;5068424;28;20287;-65
2021/04/12 06:58:29;;;;;;;;;;;;;;;;;;5055210;28;19932;-64
2021/04/12 07:00:55;;;;;;;;;;;;;;;;;;5066281;28;19964;-63
2021/04/12 07:03:22;;;;;;;;;;;;;;;;;;5066380;28;20381;-64
2021/04/12 07:05:49;;;;;;;;;;;;;;;;;;5057799;28;19925;-65
2021/04/12 07:08:15;;;;;;;;;;;;;;;;;;5050321;28;19925;-64
2021/04/12 07:10:42;;;;;;;;;;;;;;;;;;5050361;28;20001;-63
2021/04/12 07:13:08;;;;;;;;;;;;;;;;;;5058203;28;19925;-65
2021/04/12 07:15:35;;;;;;;;;;;;;;;;;;5057772;28;20554;-63
2021/04/12 07:18:01;;;;;;;;;;;;;;;;;;5058748;28;19929;-63
2021/04/12 07:20:27;;;;;;;;;;;;;;;;;;5061240;28;19931;-64
2021/04/12 07:22:54;;;;;;;;;;;;;;;;;;5055909;28;19928;-65
2021/04/12 07:25:20;;;;;;;;;;;;;;;;;;5057374;28;19924;-61
2021/04/12 07:27:47;;;;;;;;;;;;;;;;;;5061673;28;20010;-64
2021/04/12 07:30:13;;;;;;;;;;;;;;;;;;5063491;28;19972;-64
2021/04/12 07:32:42;;;;;;;;;;;;;;;;;;5056302;28;20424;-64
2021/04/12 07:35:08;;;;;;;;;;;;;;;;;;5064166;28;19924;-66
2021/04/12 07:37:35;;;;;;;;;;;;;;;;;;5065425;28;19996;-68
2021/04/12 07:40:01;;;;;;;;;;;;;;;;;;5067548;28;20031;-60
2021/04/12 07:42:29;;;;;;;;;;;;;;;;;;5065094;28;20364;-64
2021/04/12 07:44:55;;;;;;;;;;;;;;;;;;5060653;28;19924;-66
2021/04/12 07:47:22;;;;;;;;;;;;;;;;;;5064158;28;19977;-64
2021/04/12 07:49:49;;;;;;;;;;;;;;;;;;5060818;28;19928;-65
2021/04/12 07:52:15;;;;;;;;;;;;;;;;;;5065701;28;19924;-65
2021/04/12 07:54:42;;;;;;;;;;;;;;;;;;5056914;28;20406;-62
2021/04/12 07:57:08;;;;;;;;;;;;;;;;;;5064785;28;19929;-65
2021/04/12 07:59:35;;;;;;;;;;;;;;;;;;5056603;28;20345;-66
2021/04/12 08:02:01;;;;;;;;;;;;;;;;;;5057289;28;19931;-65
2021/04/12 08:04:28;;;;;;;;;;;;;;;;;;5061933;28;20023;-65
2021/04/12 08:06:57;;;;;;;;;;;;;;;;;;5058361;28;19928;-65
2021/04/12 08:09:23;;;;;;;;;;;;;;;;;;5054277;28;19924;-65
2021/04/12 08:11:50;;;;;;;;;;;;;;;;;;5064950;28;20019;-65
2021/04/12 08:14:16;;;;;;;;;;;;;;;;;;5057132;28;19947;-66
2021/04/12 08:16:43;;;;;;;;;;;;;;;;;;5063968;28;20388;-65
2021/04/12 08:19:10;;;;;;;;;;;;;;;;;;5055676;28;20015;-65
2021/04/12 08:21:36;;;;;;;;;;;;;;;;;;5057824;28;19925;-66
2021/04/12 08:24:03;;;;;;;;;;;;;;;;;;5057331;28;19931;-65
2021/04/12 08:26:29;;;;;;;;;;;;;;;;;;5054401;28;20011;-67
2021/04/12 08:28:56;;;;;;;;;;;;;;;;;;5061134;28;19933;-66
2021/04/12 08:31:24;;;;;;;;;;;;;;;;;;5050681;28;19972;-65
2021/04/12 08:33:50;;;;;;;;;;;;;;;;;;5057141;28;19924;-65
2021/04/12 08:36:17;;;;;;;;;;;;;;;;;;5054431;28;20372;-66
2021/04/12 08:38:43;;;;;;;;;;;;;;;;;;5053998;28;20019;-65
2021/04/12 08:41:10;;;;;;;;;;;;;;;;;;5068540;28;19928;-64
2021/04/12 08:43:36;;;;;;;;;;;;;;;;;;5055711;28;19963;-66
2021/04/12 08:46:03;;;;;;;;;;;;;;;;;;5056679;28;19924;-67
2021/04/12 08:48:29;;;;;;;;;;;;;;;;;;5055569;28;20020;-65
2021/04/12 08:50:57;;;;;;;;;;;;;;;;;;5058664;28;19928;-65
2021/04/12 08:53:23;;;;;;;;;;;;;;;;;;5050226;28;19929;-65
2021/04/12 08:55:50;;;;;;;;;;;;;;;;;;5052518;28;20477;-65
2021/04/12 08:58:17;;;;;;;;;;;;;;;;;;5056714;28;20376;-65
2021/04/12 09:00:43;;;;;;;;;;;;;;;;;;5055028;28;19924;-66
2021/04/12 09:03:10;;;;;;;;;;;;;;;;;;5062610;28;19924;-66
2021/04/12 09:05:36;;;;;;;;;;;;;;;;;;5062734;28;20460;-67
2021/04/12 09:08:04;;;;;;;;;;;;;;;;;;5065090;28;19924;-66
2021/04/12 09:10:30;;;;;;;;;;;;;;;;;;5058011;28;19924;-67
2021/04/12 09:12:57;;;;;;;;;;;;;;;;;;5060104;28;20648;-66
2021/04/12 09:15:23;;;;;;;;;;;;;;;;;;5056319;28;19936;-64
2021/04/12 09:17:50;;;;;;;;;;;;;;;;;;5064024;28;20502;-67
2021/04/12 09:20:16;;;;;;;;;;;;;;;;;;5062938;28;19925;-65
2021/04/12 09:22:47;;;;;;;;;;;;;;;;;;5058102;28;20339;-65
2021/04/12 09:25:14;;;;;;;;;;;;;;;;;;5058761;28;19929;-66
2021/04/12 09:27:40;;;;;;;;;;;;;;;;;;5061442;28;20019;-65
2021/04/12 09:30:10;;;;;;;;;;;;;;;;;;5069327;28;20290;-65
2021/04/12 09:32:37;;;;;;;;;;;;;;;;;;5057519;28;19929;-66
2021/04/12 09:35:03;;;;;;;;;;;;;;;;;;5063805;28;20689;-65
2021/04/12 09:37:30;;;;;;;;;;;;;;;;;;5061657;28;20591;-66
2021/04/12 09:39:56;;;;;;;;;;;;;;;;;;5062287;28;19929;-65
2021/04/12 09:42:23;;;;;;;;;;;;;;;;;;5061463;28;20351;-65
2021/04/12 09:44:49;;;;;;;;;;;;;;;;;;5057832;28;20027;-65
2021/04/12 09:47:16;;;;;;;;;;;;;;;;;;5057237;28;19925;-65
2021/04/12 09:49:42;;;;;;;;;;;;;;;;;;5058172;28;19924;-65
2021/04/12 09:52:09;;;;;;;;;;;;;;;;;;5066286;28;19931;-65
2021/04/12 09:54:35;;;;;;;;;;;;;;;;;;5061099;28;19956;-64
2021/04/12 09:57:02;;;;;;;;;;;;;;;;;;5062628;28;20015;-65
2021/04/12 09:59:28;;;;;;;;;;;;;;;;;;5069312;28;19967;-65
2021/04/12 10:01:55;;;;;;;;;;;;;;;;;;5057196;28;19960;-65
2021/04/12 10:04:21;;;;;;;;;;;;;;;;;;5058846;28;20362;-65
2021/04/12 10:06:48;;;;;;;;;;;;;;;;;;5056858;28;19925;-65
2021/04/12 10:09:14;;;;;;;;;;;;;;;;;;5055422;28;19970;-65
2021/04/12 10:11:41;;;;;;;;;;;;;;;;;;5060747;28;19967;-65
2021/04/12 10:14:07;;;;;;;;;;;;;;;;;;5056916;28;21166;-65
2021/04/12 10:16:34;;;;;;;;;;;;;;;;;;5062836;28;21315;-65
2021/04/12 10:19:00;;;;;;;;;;;;;;;;;;5063636;28;20334;-64
2021/04/12 10:21:27;;;;;;;;;;;;;;;;;;5054996;28;19925;-66
2021/04/12 10:23:53;;;;;;;;;;;;;;;;;;5061014;28;20020;-66
2021/04/12 10:26:20;;;;;;;;;;;;;;;;;;5063496;28;20023;-64
2021/04/12 10:28:46;;;;;;;;;;;;;;;;;;5067965;28;19932;-65
2021/04/12 10:31:14;;;;;;;;;;;;;;;;;;5060834;28;19924;-65
2021/04/12 10:33:40;;;;;;;;;;;;;;;;;;5055829;28;19990;-64
2021/04/12 10:36:07;;;;;;;;;;;;;;;;;;5053720;28;19981;-66
2021/04/12 10:38:33;;;;;;;;;;;;;;;;;;5057393;28;19947;-66
2021/04/12 10:41:00;;;;;;;;;;;;;;;;;;5055579;28;19925;-64
2021/04/12 10:43:26;;;;;;;;;;;;;;;;;;5059921;28;19930;-61
2021/04/12 10:45:53;;;;;;;;;;;;;;;;;;5056720;28;20304;-63
2021/04/12 10:48:19;;;;;;;;;;;;;;;;;;5053104;28;19931;-63
2021/04/12 10:50:46;;;;;;;;;;;;;;;;;;5061319;28;19924;-63
2021/04/12 10:53:12;;;;;;;;;;;;;;;;;;5061360;28;19925;-63
2021/04/12 10:55:39;;;;;;;;;;;;;;;;;;5056504;28;19925;-65
2021/04/12 10:58:05;;;;;;;;;;;;;;;;;;5056843;28;19924;-62
2021/04/12 11:00:32;;;;;;;;;;;;;;;;;;5058810;28;19929;-63
2021/04/12 11:02:58;;;;;;;;;;;;;;;;;;5055433;28;20034;-62
2021/04/12 11:05:25;;;;;;;;;;;;;;;;;;5053701;28;19925;-62
2021/04/12 11:07:51;;;;;;;;;;;;;;;;;;5061001;28;19931;-63
2021/04/12 11:10:18;;;;;;;;;;;;;;;;;;5065935;28;19925;-66
2021/04/12 11:12:45;;;;;;;;;;;;;;;;;;5051399;28;20408;-66
2021/04/12 11:15:11;;;;;;;;;;;;;;;;;;5054851;28;20456;-66
2021/04/12 11:17:38;;;;;;;;;;;;;;;;;;5056240;28;19925;-67
2021/04/12 11:20:04;;;;;;;;;;;;;;;;;;5055039;28;19972;-65
2021/04/12 11:22:32;;;;;;;;;;;;;;;;;;5057027;28;19931;-67
2021/04/12 11:24:58;;;;;;;;;;;;;;;;;;5054233;28;19979;-65
2021/04/12 11:27:25;;;;;;;;;;;;;;;;;;5060136;28;19968;-67
2021/04/12 11:29:51;;;;;;;;;;;;;;;;;;5054573;28;20322;-66
2021/04/12 11:32:18;;;;;;;;;;;;;;;;;;5055173;28;20021;-66
2021/04/12 11:34:44;;;;;;;;;;;;;;;;;;5055068;28;20016;-65
2021/04/12 11:37:11;;;;;;;;;;;;;;;;;;5058432;28;19955;-64
2021/04/12 11:39:38;;;;;;;;;;;;;;;;;;5054612;28;19971;-65
2021/04/12 11:42:05;;;;;;;;;;;;;;;;;;5054303;28;20342;-67
2021/04/12 11:44:31;;;;;;;;;;;;;;;;;;5053332;28;20023;-68
2021/04/12 11:46:58;;;;;;;;;;;;;;;;;;5057208;28;19933;-65
2021/04/12 11:49:26;;;;;;;;;;;;;;;;;;5058732;28;19977;-66
2021/04/12 11:51:52;;;;;;;;;;;;;;;;;;5055280;28;19925;-65
2021/04/12 11:54:19;;;;;;;;;;;;;;;;;;5056163;28;19942;-66
2021/04/12 11:56:45;;;;;;;;;;;;;;;;;;5061337;28;20411;-65
2021/04/12 11:59:12;;;;;;;;;;;;;;;;;;5064713;28;19933;-66
2021/04/12 12:01:39;;;;;;;;;;;;;;;;;;5061999;28;19924;-66
2021/04/12 12:04:05;;;;;;;;;;;;;;;;;;5057217;28;20359;-66
2021/04/12 12:06:32;;;;;;;;;;;;;;;;;;5056682;28;19932;-65
2021/04/12 12:08:58;;;;;;;;;;;;;;;;;;5074276;28;19935;-66
2021/04/12 12:11:25;;;;;;;;;;;;;;;;;;5069253;28;20308;-66
2021/04/12 12:13:51;;;;;;;;;;;;;;;;;;5062443;28;24164;-65
2021/04/12 12:16:18;;;;;;;;;;;;;;;;;;5069232;28;19959;-65
2021/04/12 12:18:44;;;;;;;;;;;;;;;;;;5057084;28;20019;-66
2021/04/12 12:21:11;;;;;;;;;;;;;;;;;;5056808;28;19924;-67
2021/04/12 12:23:38;;;;;;;;;;;;;;;;;;5057679;28;19925;-65
2021/04/12 12:26:04;;;;;;;;;;;;;;;;;;5061265;28;19924;-65
2021/04/12 12:28:31;;;;;;;;;;;;;;;;;;5056826;28;20499;-66
2021/04/12 12:30:58;;;;;;;;;;;;;;;;;;5057588;28;19924;-64
2021/04/12 12:33:25;;;;;;;;;;;;;;;;;;5053610;28;19932;-65
2021/04/12 12:35:51;;;;;;;;;;;;;;;;;;5054326;28;20353;-65
2021/04/12 12:38:18;;;;;;;;;;;;;;;;;;5056319;28;19924;-65
2021/04/12 12:40:45;;;;;;;;;;;;;;;;;;5057099;28;19931;-65
2021/04/12 12:43:19;;;;;;;;;;;;;;;;;;5054954;28;19929;-66
2021/04/12 12:45:46;;;;;;;;;;;;;;;;;;5058524;28;19925;-66
2021/04/12 12:48:12;;;;;;;;;;;;;;;;;;5056158;28;19971;-66
2021/04/12 12:50:44;;;;;;;;;;;;;;;;;;5057726;28;20388;-66
2021/04/12 12:53:11;;;;;;;;;;;;;;;;;;5055899;28;20041;-67
2021/04/12 12:55:37;;;;;;;;;;;;;;;;;;5057556;28;19954;-65
2021/04/12 12:58:04;;;;;;;;;;;;;;;;;;5061199;28;19972;-66
2021/04/12 13:00:31;;;;;;;;;;;;;;;;;;5063032;28;20007;-64
2021/04/12 13:03:18;;;;;;;;;;;;;;;;;;;;;
2021/04/12 13:05:45;;;;;;;;;;;;;;;;;;5040789;28;19924;-64
2021/04/12 13:08:12;;;;;;;;;;;;;;;;;;5062509;28;19971;-65
2021/04/12 13:10:38;;;;;;;;;;;;;;;;;;5062452;28;20012;-64
2021/04/12 13:13:19;;;;;;;;;;;;;;;;;;5067235;28;20068;-64
2021/04/12 13:15:48;;;;;;;;;;;;;;;;;;5063230;28;19947;-65
2021/04/12 13:18:15;;;;;;;;;;;;;;;;;;5062365;28;19924;-65
2021/04/12 13:20:41;;;;;;;;;;;;;;;;;;5061870;28;19931;-65
2021/04/12 13:23:08;;;;;;;;;;;;;;;;;;5056981;28;19925;-65
2021/04/12 13:25:35;;;;;;;;;;;;;;;;;;5057545;28;19925;-65
2021/04/12 13:28:01;;;;;;;;;;;;;;;;;;5062989;28;19925;-62
2021/04/12 13:30:28;;;;;;;;;;;;;;;;;;5063433;28;20011;-61
2021/04/12 13:32:58;;;;;;;;;;;;;;;;;;5061099;28;19932;-64
2021/04/12 13:35:24;;;;;;;;;;;;;;;;;;5058014;28;19925;-63
2021/04/12 13:37:54;;;;;;;;;;;;;;;;;;5058925;28;19932;-63
2021/04/12 13:40:20;;;;;;;;;;;;;;;;;;5062491;28;19925;-66
2021/04/12 13:42:47;;;;;;;;;;;;;;;;;;5061037;28;19979;-65
2021/04/12 13:45:14;;;;;;;;;;;;;;;;;;5062275;28;19972;-65
2021/04/12 13:47:40;;;;;;;;;;;;;;;;;;5053099;28;19971;-65
2021/04/12 13:50:07;;;;;;;;;;;;;;;;;;5058878;28;19928;-64
2021/04/12 13:52:35;;;;;;;;;;;;;;;;;;5065638;28;19929;-64
2021/04/12 13:55:02;;;;;;;;;;;;;;;;;;5064595;28;19960;-64
2021/04/12 13:57:28;;;;;;;;;;;;;;;;;;5058910;28;19925;-65
2021/04/12 13:59:55;;;;;;;;;;;;;;;;;;5077880;28;20392;-66
2021/04/12 14:02:21;;;;;;;;;;;;;;;;;;5064453;28;19925;-66
2021/04/12 14:04:48;;;;;;;;;;;;;;;;;;5055675;28;19932;-63
2021/04/12 14:07:14;;;;;;;;;;;;;;;;;;5057454;28;19994;-63
2021/04/12 14:09:41;;;;;;;;;;;;;;;;;;5053733;28;20007;-64
2021/04/12 14:12:07;;;;;;;;;;;;;;;;;;5059689;28;20008;-68
2021/04/12 14:14:34;;;;;;;;;;;;;;;;;;5093052;28;19924;-66
2021/04/12 14:17:01;;;;;;;;;;;;;;;;;;5093075;28;19924;-66
2021/04/12 14:19:30;;;;;;;;;;;;;;;;;;5078817;28;19970;-66
2021/04/12 14:21:59;;;;;;;;;;;;;;;;;;5057901;28;19928;-67
2021/04/12 14:24:27;;;;;;;;;;;;;;;;;;5054876;28;19925;-65
2021/04/12 14:26:53;;;;;;;;;;;;;;;;;;5055101;28;20430;-68
2021/04/12 14:29:20;;;;;;;;;;;;;;;;;;5055383;28;19925;-66
2021/04/12 14:31:47;;;;;;;;;;;;;;;;;;5055121;28;19978;-64
2021/04/12 14:34:13;;;;;;;;;;;;;;;;;;5054567;28;19928;-66
2021/04/12 14:36:40;;;;;;;;;;;;;;;;;;5062938;28;19967;-66
2021/04/12 14:39:06;;;;;;;;;;;;;;;;;;5054756;28;20372;-65
2021/04/12 14:41:33;;;;;;;;;;;;;;;;;;5066560;28;20396;-66
2021/04/12 14:43:59;;;;;;;;;;;;;;;;;;5062068;28;19928;-65
2021/04/12 14:46:26;;;;;;;;;;;;;;;;;;5057071;28;19935;-66
2021/04/12 14:48:53;;;;;;;;;;;;;;;;;;5057874;28;20432;-66
2021/04/12 14:51:19;;;;;;;;;;;;;;;;;;5075818;28;20056;-66
2021/04/12 14:53:46;;;;;;;;;;;;;;;;;;5061604;28;20018;-66
2021/04/12 14:56:13;;;;;;;;;;;;;;;;;;5065824;28;20391;-66
2021/04/12 14:58:39;;;;;;;;;;;;;;;;;;5063838;28;20019;-65
2021/04/12 15:01:06;;;;;;;;;;;;;;;;;;5074276;28;20011;-65
2021/04/12 15:03:33;;;;;;;;;;;;;;;;;;5063921;28;20292;-65
2021/04/12 15:06:00;;;;;;;;;;;;;;;;;;5071397;28;19972;-65
2021/04/12 15:08:26;;;;;;;;;;;;;;;;;;5066997;28;19976;-65
2021/04/12 15:10:53;;;;;;;;;;;;;;;;;;5056598;28;19928;-65
2021/04/12 15:13:20;;;;;;;;;;;;;;;;;;5056818;28;20019;-65
2021/04/12 15:15:46;;;;;;;;;;;;;;;;;;5075045;28;20365;-65
2021/04/12 15:18:14;;;;;;;;;;;;;;;;;;5069956;28;19928;-64
2021/04/12 15:20:40;;;;;;;;;;;;;;;;;;5060549;28;20290;-65
2021/04/12 15:23:07;;;;;;;;;;;;;;;;;;5061200;28;19929;-62
2021/04/12 15:25:35;;;;;;;;;;;;;;;;;;5062485;28;19932;-65
2021/04/12 15:28:05;;;;;;;;;;;;;;;;;;5060476;28;19932;-66
2021/04/12 15:30:32;;;;;;;;;;;;;;;;;;5063758;28;19925;-66
2021/04/12 15:32:58;;;;;;;;;;;;;;;;;;5072180;28;20988;-64
2021/04/12 15:35:25;;;;;;;;;;;;;;;;;;5065455;28;19925;-65
2021/04/12 15:37:51;;;;;;;;;;;;;;;;;;5064096;28;19925;-66
2021/04/12 15:40:18;;;;;;;;;;;;;;;;;;5067236;28;20058;-66
2021/04/12 15:42:44;;;;;;;;;;;;;;;;;;5067666;28;19924;-66
2021/04/12 15:45:11;;;;;;;;;;;;;;;;;;5062135;28;19979;-64
2021/04/12 15:47:38;;;;;;;;;;;;;;;;;;5064365;28;19924;-64
2021/04/12 15:50:05;;;;;;;;;;;;;;;;;;5058710;28;19932;-64
2021/04/12 15:52:31;;;;;;;;;;;;;;;;;;5061787;28;19936;-63
2021/04/12 15:54:58;;;;;;;;;;;;;;;;;;5061421;28;19931;-64
2021/04/12 15:57:25;;;;;;;;;;;;;;;;;;5067083;28;19931;-65
2021/04/12 15:59:51;;;;;;;;;;;;;;;;;;5061126;28;19991;-66
2021/04/12 16:02:18;;;;;;;;;;;;;;;;;;5062670;28;20369;-65
2021/04/12 16:04:44;;;;;;;;;;;;;;;;;;5063934;28;21251;-65
2021/04/12 16:07:11;;;;;;;;;;;;;;;;;;5057508;28;19952;-65
2021/04/12 16:09:38;;;;;;;;;;;;;;;;;;5056725;28;19925;-65
2021/04/12 16:12:04;;;;;;;;;;;;;;;;;;5058046;28;19924;-64
2021/04/12 16:14:31;;;;;;;;;;;;;;;;;;5060128;28;19968;-65
2021/04/12 16:16:57;;;;;;;;;;;;;;;;;;5055587;28;19952;-64
2021/04/12 16:19:24;;;;;;;;;;;;;;;;;;5057973;28;20600;-64
2021/04/12 16:21:51;;;;;;;;;;;;;;;;;;5066501;28;19939;-66
2021/04/12 16:24:17;;;;;;;;;;;;;;;;;;5056495;28;19924;-65
2021/04/12 16:26:46;;;;;;;;;;;;;;;;;;5055218;28;19929;-65
2021/04/12 16:29:12;;;;;;;;;;;;;;;;;;5055039;28;19928;-64
2021/04/12 16:31:39;;;;;;;;;;;;;;;;;;5057604;28;19939;-65
2021/04/12 16:34:05;;;;;;;;;;;;;;;;;;5054496;28;19924;-65
2021/04/12 16:36:33;;;;;;;;;;;;;;;;;;5056648;28;19925;-65
2021/04/12 16:38:59;;;;;;;;;;;;;;;;;;5056264;28;19994;-64
2021/04/12 16:41:26;;;;;;;;;;;;;;;;;;5055122;28;19937;-65